Cachoeirinha, Brazil
Current Conditions -  °F | °C
As of 2:00 AM on Friday 31 Oct 2014 (Local Time) from SBIZ Reporting Station
Thunderstorm Thunderstorm  
Wind Chill: 75°   Ceiling: 3000
Heat Index: 75°   Visibility: 3mi
Dew Point: 72°   Wind: 12mph
Humidity: 89%   Direction: 50°NE
Pressure: 29.83"   Gusts: NA
Location:  6.12°S, 47.92°W
Report Text: SBIZ 310500Z 05010KT 5000 -TSRA BR FEW025CB OVC030 24/22 Q1010
Loading
Personal Weather Stations






























Interactive Weather Map
Tropical Storm Tracking
New forecast layout! Learn more

10-Day Weather Forecast

Advertisements
Track Severe Weather on mobile